Tipton, Oklahoma
Current Conditions -  °F | °C
As of 3:58 PM on Thursday 27 Nov 2014 (Local Time) from KLTS Reporting Station
Clear Clear  
Wind Chill: 53°   Ceiling: Unl
Heat Index: 53°   Visibility: 10mi
Dew Point: 28°   Wind: 15mph
Humidity: 38%   Direction: 170°S
Pressure: 30.35"   Gusts: NA
Location:  34.5°N, 99.14°W
Report Text: KLTS 272158Z AUTO 17013KT 10SM CLR 12/M02 A3035 RMK AO2 SLP283 T01161024 $
Loading
Personal Weather Stations






























Interactive Weather Map New forecast layout! Learn more

10-Day Weather Forecast

Advertisements
Track Severe Weather on mobile